Terminal Aerodrome Forecast
Issued by NWS Rapid City, SD

Home | Current Version | Previous Version | Graphics & Text | Print | Product List | Glossary On
Versions: 1 2 3 4 5 6 7 8 9 10 11 12 13 14 15 16
034
FTUS43 KUNR 301722
TAFRAP
TAF
KRAP 301722Z 3018/0118 33020G30KT 6SM -SN BKN040
     FM010000 34008KT P6SM OVC070=

USA.gov is the U.S. government's official web portal to all federal, state and local government web resources and services.